sensor_id;sensor_type;location;lat;lon;timestamp;pressure;altitude;pressure_sealevel;temperature;humidity
71772;BME280;59606;52.138;5.424;2023-02-21T00:02:16;102173.00;;;8.20;100.00
71772;BME280;59606;52.138;5.424;2023-02-21T00:05:01;102167.81;;;8.20;100.00
71772;BME280;59606;52.138;5.424;2023-02-21T00:07:47;102170.41;;;8.20;100.00
71772;BME280;59606;52.138;5.424;2023-02-21T00:10:32;102169.56;;;8.19;100.00
71772;BME280;59606;52.138;5.424;2023-02-21T00:13:16;102170.41;;;8.20;100.00
71772;BME280;59606;52.138;5.424;2023-02-21T00:16:01;102173.84;;;8.20;100.00
71772;BME280;59606;52.138;5.424;2023-02-21T00:18:47;102168.66;;;8.20;100.00
71772;BME280;59606;52.138;5.424;2023-02-21T00:21:31;102171.25;;;8.20;100.00
71772;BME280;59606;52.138;5.424;2023-02-21T00:24:18;102177.34;;;8.19;100.00
71772;BME280;59606;52.138;5.424;2023-02-21T00:27:03;102177.34;;;8.19;100.00
71772;BME280;59606;52.138;5.424;2023-02-21T00:29:49;102181.69;;;8.19;100.00
71772;BME280;59606;52.138;5.424;2023-02-21T00:32:35;102184.22;;;8.20;100.00
71772;BME280;59606;52.138;5.424;2023-02-21T00:35:20;102183.38;;;8.20;100.00
71772;BME280;59606;52.138;5.424;2023-02-21T00:38:05;102172.16;;;8.19;100.00
71772;BME280;59606;52.138;5.424;2023-02-21T00:40:52;102173.00;;;8.20;100.00
71772;BME280;59606;52.138;5.424;2023-02-21T00:43:37;102175.59;;;8.20;100.00
71772;BME280;59606;52.138;5.424;2023-02-21T00:46:22;102174.78;;;8.18;100.00
71772;BME280;59606;52.138;5.424;2023-02-21T00:49:07;102174.75;;;8.19;100.00
71772;BME280;59606;52.138;5.424;2023-02-21T00:51:52;102173.91;;;8.19;100.00
71772;BME280;59606;52.138;5.424;2023-02-21T00:54:38;102168.72;;;8.19;100.00
71772;BME280;59606;52.138;5.424;2023-02-21T00:57:23;102166.13;;;8.19;100.00
71772;BME280;59606;52.138;5.424;2023-02-21T01:00:15;102162.66;;;8.18;100.00
71772;BME280;59606;52.138;5.424;2023-02-21T01:03:00;102159.19;;;8.19;100.00
71772;BME280;59606;52.138;5.424;2023-02-21T01:05:45;102151.41;;;8.18;100.00
71772;BME280;59606;52.138;5.424;2023-02-21T01:08:31;102149.69;;;8.18;100.00
71772;BME280;59606;52.138;5.424;2023-02-21T01:11:17;102147.13;;;8.17;100.00
71772;BME280;59606;52.138;5.424;2023-02-21T01:14:03;102148.88;;;8.16;100.00
71772;BME280;59606;52.138;5.424;2023-02-21T01:16:49;102139.31;;;8.17;100.00
71772;BME280;59606;52.138;5.424;2023-02-21T01:19:40;102144.56;;;8.15;100.00
71772;BME280;59606;52.138;5.424;2023-02-21T01:22:25;102149.75;;;8.15;100.00
71772;BME280;59606;52.138;5.424;2023-02-21T01:25:11;102153.22;;;8.16;100.00
71772;BME280;59606;52.138;5.424;2023-02-21T01:27:55;102139.41;;;8.14;100.00
71772;BME280;59606;52.138;5.424;2023-02-21T01:30:40;102146.28;;;8.15;100.00
71772;BME280;59606;52.138;5.424;2023-02-21T01:33:25;102141.97;;;8.15;100.00
71772;BME280;59606;52.138;5.424;2023-02-21T01:36:10;102143.69;;;8.15;100.00
71772;BME280;59606;52.138;5.424;2023-02-21T01:38:55;102140.22;;;8.16;100.00
71772;BME280;59606;52.138;5.424;2023-02-21T01:41:40;102135.03;;;8.16;100.00
71772;BME280;59606;52.138;5.424;2023-02-21T01:44:39;102135.06;;;8.14;100.00
71772;BME280;59606;52.138;5.424;2023-02-21T01:47:25;102136.78;;;8.15;100.00
71772;BME280;59606;52.138;5.424;2023-02-21T01:50:30;102129.00;;;8.15;100.00
71772;BME280;59606;52.138;5.424;2023-02-21T01:53:19;102136.78;;;8.15;100.00
71772;BME280;59606;52.138;5.424;2023-02-21T01:56:05;102128.09;;;8.16;100.00
71772;BME280;59606;52.138;5.424;2023-02-21T01:58:52;102135.03;;;8.16;100.00
71772;BME280;59606;52.138;5.424;2023-02-21T02:01:45;102131.53;;;8.17;100.00
71772;BME280;59606;52.138;5.424;2023-02-21T02:04:32;102133.28;;;8.16;100.00
71772;BME280;59606;52.138;5.424;2023-02-21T02:07:17;102123.81;;;8.15;100.00
71772;BME280;59606;52.138;5.424;2023-02-21T02:10:04;102128.91;;;8.18;100.00
71772;BME280;59606;52.138;5.424;2023-02-21T02:16:44;102129.78;;;8.19;100.00
71772;BME280;59606;52.138;5.424;2023-02-21T02:22:28;102121.16;;;8.17;100.00
71772;BME280;59606;52.138;5.424;2023-02-21T02:25:09;102128.03;;;8.18;100.00
71772;BME280;59606;52.138;5.424;2023-02-21T02:36:23;102113.28;;;8.20;100.00
71772;BME280;59606;52.138;5.424;2023-02-21T02:44:41;102115.91;;;8.20;100.00
71772;BME280;59606;52.138;5.424;2023-02-21T02:47:20;102117.59;;;8.21;100.00
71772;BME280;59606;52.138;5.424;2023-02-21T02:49:49;102118.50;;;8.20;100.00
71772;BME280;59606;52.138;5.424;2023-02-21T02:52:17;102124.53;;;8.20;100.00
71772;BME280;59606;52.138;5.424;2023-02-21T02:54:43;102126.28;;;8.20;100.00
71772;BME280;59606;52.138;5.424;2023-02-21T02:57:10;102126.28;;;8.20;100.00
71772;BME280;59606;52.138;5.424;2023-02-21T02:59:42;102134.91;;;8.22;100.00
71772;BME280;59606;52.138;5.424;2023-02-21T03:05:07;102127.09;;;8.22;100.00
71772;BME280;59606;52.138;5.424;2023-02-21T03:07:49;102125.34;;;8.22;100.00
71772;BME280;59606;52.138;5.424;2023-02-21T03:13:36;102115.03;;;8.19;100.00
71772;BME280;59606;52.138;5.424;2023-02-21T03:16:19;102107.28;;;8.18;100.00
71772;BME280;59606;52.138;5.424;2023-02-21T03:19:21;102111.59;;;8.19;100.00
71772;BME280;59606;52.138;5.424;2023-02-21T03:21:59;102110.78;;;8.17;100.00
71772;BME280;59606;52.138;5.424;2023-02-21T03:24:28;102115.06;;;8.18;100.00
71772;BME280;59606;52.138;5.424;2023-02-21T03:26:58;102109.03;;;8.17;100.00
71772;BME280;59606;52.138;5.424;2023-02-21T03:29:25;102110.78;;;8.17;100.00
71772;BME280;59606;52.138;5.424;2023-02-21T03:32:00;102105.59;;;8.17;100.00
71772;BME280;59606;52.138;5.424;2023-02-21T03:34:38;102109.94;;;8.16;100.00
71772;BME280;59606;52.138;5.424;2023-02-21T03:37:06;102103.88;;;8.16;100.00
71772;BME280;59606;52.138;5.424;2023-02-21T03:39:33;102111.63;;;8.17;100.00
71772;BME280;59606;52.138;5.424;2023-02-21T03:42:00;102109.88;;;8.18;100.00
71772;BME280;59606;52.138;5.424;2023-02-21T03:44:27;102109.03;;;8.17;100.00
71772;BME280;59606;52.138;5.424;2023-02-21T03:46:53;102106.47;;;8.16;100.00
71772;BME280;59606;52.138;5.424;2023-02-21T03:49:20;102103.88;;;8.16;100.00
71772;BME280;59606;52.138;5.424;2023-02-21T03:51:46;102097.78;;;8.18;100.00
71772;BME280;59606;52.138;5.424;2023-02-21T03:54:13;102101.25;;;8.17;100.00
71772;BME280;59606;52.138;5.424;2023-02-21T03:56:39;102109.88;;;8.18;100.00
71772;BME280;59606;52.138;5.424;2023-02-21T03:59:07;102103.84;;;8.17;100.00
71772;BME280;59606;52.138;5.424;2023-02-21T04:01:34;102098.66;;;8.17;100.00
71772;BME280;59606;52.138;5.424;2023-02-21T04:04:00;102095.19;;;8.17;100.00
71772;BME280;59606;52.138;5.424;2023-02-21T04:06:27;102091.75;;;8.16;100.00
71772;BME280;59606;52.138;5.424;2023-02-21T04:08:53;102103.84;;;8.17;100.00
71772;BME280;59606;52.138;5.424;2023-02-21T04:11:20;102107.28;;;8.18;100.00
71772;BME280;59606;52.138;5.424;2023-02-21T04:13:47;102105.59;;;8.17;100.00
71772;BME280;59606;52.138;5.424;2023-02-21T04:16:14;102112.47;;;8.18;100.00
71772;BME280;59606;52.138;5.424;2023-02-21T04:18:40;102111.63;;;8.17;100.00
71772;BME280;59606;52.138;5.424;2023-02-21T04:21:06;102102.09;;;8.18;100.00
71772;BME280;59606;52.138;5.424;2023-02-21T04:23:33;102104.69;;;8.18;100.00
71772;BME280;59606;52.138;5.424;2023-02-21T04:26:00;102098.69;;;8.16;100.00
71772;BME280;59606;52.138;5.424;2023-02-21T04:28:26;102106.47;;;8.16;100.00
71772;BME280;59606;52.138;5.424;2023-02-21T04:30:53;102097.84;;;8.15;100.00
71772;BME280;59606;52.138;5.424;2023-02-21T04:33:19;102087.53;;;8.12;100.00
71772;BME280;59606;52.138;5.424;2023-02-21T04:35:45;102083.19;;;8.13;100.00
71772;BME280;59606;52.138;5.424;2023-02-21T04:38:14;102093.56;;;8.13;100.00
71772;BME280;59606;52.138;5.424;2023-02-21T04:40:40;102089.28;;;8.12;100.00
71772;BME280;59606;52.138;5.424;2023-02-21T04:43:06;102088.38;;;8.13;100.00
71772;BME280;59606;52.138;5.424;2023-02-21T04:45:33;102089.22;;;8.13;100.00
71772;BME280;59606;52.138;5.424;2023-02-21T04:47:59;102089.22;;;8.13;100.00
71772;BME280;59606;52.138;5.424;2023-02-21T04:50:26;102082.38;;;8.11;100.00
71772;BME280;59606;52.138;5.424;2023-02-21T04:52:53;102084.97;;;8.11;100.00
71772;BME280;59606;52.138;5.424;2023-02-21T04:55:20;102093.59;;;8.11;100.00
71772;BME280;59606;52.138;5.424;2023-02-21T04:57:46;102091.00;;;8.11;100.00
71772;BME280;59606;52.138;5.424;2023-02-21T05:00:14;102084.97;;;8.11;100.00
71772;BME280;59606;52.138;5.424;2023-02-21T05:02:42;102090.13;;;8.12;100.00
71772;BME280;59606;52.138;5.424;2023-02-21T05:05:09;102093.56;;;8.13;100.00
71772;BME280;59606;52.138;5.424;2023-02-21T05:07:36;102088.38;;;8.13;100.00
71772;BME280;59606;52.138;5.424;2023-02-21T05:10:03;102090.13;;;8.12;100.00
71772;BME280;59606;52.138;5.424;2023-02-21T05:12:31;102097.09;;;8.10;100.00
71772;BME280;59606;52.138;5.424;2023-02-21T05:14:57;102094.50;;;8.10;100.00
71772;BME280;59606;52.138;5.424;2023-02-21T05:17:24;102095.34;;;8.11;100.00
71772;BME280;59606;52.138;5.424;2023-02-21T05:19:50;102097.91;;;8.12;100.00
71772;BME280;59606;52.138;5.424;2023-02-21T05:22:17;102103.97;;;8.11;100.00
71772;BME280;59606;52.138;5.424;2023-02-21T05:24:46;102104.84;;;8.12;100.00
71772;BME280;59606;52.138;5.424;2023-02-21T05:27:19;102104.84;;;8.12;100.00
71772;BME280;59606;52.138;5.424;2023-02-21T05:29:51;102105.72;;;8.11;100.00
71772;BME280;59606;52.138;5.424;2023-02-21T05:32:19;102108.38;;;8.09;100.00
71772;BME280;59606;52.138;5.424;2023-02-21T05:34:46;102104.09;;;8.08;100.00
71772;BME280;59606;52.138;5.424;2023-02-21T05:37:14;102098.84;;;8.10;100.00
71772;BME280;59606;52.138;5.424;2023-02-21T05:39:41;102098.78;;;8.11;100.00
71772;BME280;59606;52.138;5.424;2023-02-21T05:42:08;102109.09;;;8.14;100.00
71772;BME280;59606;52.138;5.424;2023-02-21T05:44:34;102110.91;;;8.12;100.00
71772;BME280;59606;52.138;5.424;2023-02-21T05:47:01;102103.97;;;8.13;100.00
71772;BME280;59606;52.138;5.424;2023-02-21T05:49:28;102097.06;;;8.12;100.00
71772;BME280;59606;52.138;5.424;2023-02-21T05:51:54;102102.22;;;8.13;100.00
71772;BME280;59606;52.138;5.424;2023-02-21T05:54:21;102103.97;;;8.13;100.00
71772;BME280;59606;52.138;5.424;2023-02-21T05:56:49;102105.66;;;8.14;100.00
71772;BME280;59606;52.138;5.424;2023-02-21T05:59:18;102105.72;;;8.12;100.00
71772;BME280;59606;52.138;5.424;2023-02-21T06:01:48;102109.16;;;8.13;100.00
71772;BME280;59606;52.138;5.424;2023-02-21T06:04:16;102116.09;;;8.12;100.00
71772;BME280;59606;52.138;5.424;2023-02-21T06:06:43;102110.03;;;8.12;100.00
71772;BME280;59606;52.138;5.424;2023-02-21T06:09:10;102105.78;;;8.08;100.00
71772;BME280;59606;52.138;5.424;2023-02-21T06:11:38;102105.84;;;8.06;100.00
71772;BME280;59606;52.138;5.424;2023-02-21T06:14:08;102120.56;;;8.06;100.00
71772;BME280;59606;52.138;5.424;2023-02-21T06:16:38;102112.72;;;8.07;100.00
71772;BME280;59606;52.138;5.424;2023-02-21T06:19:06;102114.47;;;8.08;100.00
71772;BME280;59606;52.138;5.424;2023-02-21T06:21:33;102111.03;;;8.06;100.00
71772;BME280;59606;52.138;5.424;2023-02-21T06:24:02;102107.53;;;8.07;100.00
71772;BME280;59606;52.138;5.424;2023-02-21T06:26:28;102111.00;;;8.08;100.00
71772;BME280;59606;52.138;5.424;2023-02-21T06:28:55;102112.72;;;8.07;100.00
71772;BME280;59606;52.138;5.424;2023-02-21T06:31:21;102117.94;;;8.07;100.00
71772;BME280;59606;52.138;5.424;2023-02-21T06:33:49;102117.94;;;8.07;100.00
71772;BME280;59606;52.138;5.424;2023-02-21T06:36:19;102115.38;;;8.06;100.00
71772;BME280;59606;52.138;5.424;2023-02-21T06:38:48;102123.13;;;8.07;100.00
71772;BME280;59606;52.138;5.424;2023-02-21T06:41:19;102117.06;;;8.08;100.00
71772;BME280;59606;52.138;5.424;2023-02-21T06:43:46;102122.31;;;8.05;100.00
71772;BME280;59606;52.138;5.424;2023-02-21T06:46:17;102123.19;;;8.04;100.00
71772;BME280;59606;52.138;5.424;2023-02-21T06:48:44;102116.25;;;8.04;100.00
71772;BME280;59606;52.138;5.424;2023-02-21T06:51:10;102112.81;;;8.04;100.00
71772;BME280;59606;52.138;5.424;2023-02-21T06:53:41;102114.56;;;8.03;100.00
71772;BME280;59606;52.138;5.424;2023-02-21T06:56:08;102117.13;;;8.05;100.00
71772;BME280;59606;52.138;5.424;2023-02-21T06:58:35;102118.84;;;8.04;100.00
71772;BME280;59606;52.138;5.424;2023-02-21T07:01:02;102119.72;;;8.05;100.00
71772;BME280;59606;52.138;5.424;2023-02-21T07:03:28;102113.66;;;8.04;100.00
71772;BME280;59606;52.138;5.424;2023-02-21T07:05:55;102117.16;;;8.03;100.00
71772;BME280;59606;52.138;5.424;2023-02-21T07:08:21;102116.25;;;8.04;100.00
71772;BME280;59606;52.138;5.424;2023-02-21T07:10:48;102118.81;;;8.06;100.00
71772;BME280;59606;52.138;5.424;2023-02-21T07:13:14;102118.81;;;8.06;100.00
71772;BME280;59606;52.138;5.424;2023-02-21T07:15:41;102111.94;;;8.05;100.00
71772;BME280;59606;52.138;5.424;2023-02-21T07:18:08;102111.94;;;8.05;100.00
71772;BME280;59606;52.138;5.424;2023-02-21T07:20:34;102117.97;;;8.06;100.00
71772;BME280;59606;52.138;5.424;2023-02-21T07:23:01;102117.97;;;8.06;100.00
71772;BME280;59606;52.138;5.424;2023-02-21T07:25:27;102119.66;;;8.07;100.00
71772;BME280;59606;52.138;5.424;2023-02-21T07:27:55;102115.41;;;8.04;100.00
71772;BME280;59606;52.138;5.424;2023-02-21T07:30:22;102112.81;;;8.04;100.00
71772;BME280;59606;52.138;5.424;2023-02-21T07:32:48;102118.00;;;8.04;100.00
71772;BME280;59606;52.138;5.424;2023-02-21T07:35:15;102123.19;;;8.04;100.00
71772;BME280;59606;52.138;5.424;2023-02-21T07:37:41;102120.56;;;8.06;100.00
71772;BME280;59606;52.138;5.424;2023-02-21T07:40:08;102124.00;;;8.06;100.00
71772;BME280;59606;52.138;5.424;2023-02-21T07:42:35;102128.31;;;8.07;100.00
71772;BME280;59606;52.138;5.424;2023-02-21T07:45:02;102119.66;;;8.07;100.00
71772;BME280;59606;52.138;5.424;2023-02-21T07:47:28;102130.03;;;8.08;100.00
71772;BME280;59606;52.138;5.424;2023-02-21T07:49:55;102128.28;;;8.09;100.00
71772;BME280;59606;52.138;5.424;2023-02-21T07:52:21;102133.44;;;8.10;100.00
71772;BME280;59606;52.138;5.424;2023-02-21T07:54:48;102136.84;;;8.12;100.00
71772;BME280;59606;52.138;5.424;2023-02-21T07:57:16;102135.94;;;8.13;100.00
71772;BME280;59606;52.138;5.424;2023-02-21T07:59:43;102133.31;;;8.15;100.00
71772;BME280;59606;52.138;5.424;2023-02-21T08:02:11;102135.06;;;8.14;100.00
71772;BME280;59606;52.138;5.424;2023-02-21T08:04:38;102136.72;;;8.17;100.00
71772;BME280;59606;52.138;5.424;2023-02-21T08:07:05;102141.91;;;8.18;100.00
71772;BME280;59606;52.138;5.424;2023-02-21T08:09:31;102133.28;;;8.16;100.00
71772;BME280;59606;52.138;5.424;2023-02-21T08:12:01;102140.16;;;8.19;100.00
71772;BME280;59606;52.138;5.424;2023-02-21T08:14:27;102136.72;;;8.18;100.00
71772;BME280;59606;52.138;5.424;2023-02-21T08:16:54;102137.63;;;8.16;100.00
71772;BME280;59606;52.138;5.424;2023-02-21T08:19:20;102132.38;;;8.17;100.00
71772;BME280;59606;52.138;5.424;2023-02-21T08:24:20;102133.25;;;8.18;100.00
71772;BME280;59606;52.138;5.424;2023-02-21T08:26:46;102119.41;;;8.17;100.00
71772;BME280;59606;52.138;5.424;2023-02-21T08:29:14;102124.59;;;8.17;100.00
71772;BME280;59606;52.138;5.424;2023-02-21T08:31:41;102128.91;;;8.18;100.00
71772;BME280;59606;52.138;5.424;2023-02-21T08:34:10;102121.97;;;8.19;100.00
71772;BME280;59606;52.138;5.424;2023-02-21T08:36:40;102122.78;;;8.21;100.00
71772;BME280;59606;52.138;5.424;2023-02-21T08:39:07;102119.31;;;8.22;100.00
71772;BME280;59606;52.138;5.424;2023-02-21T08:41:38;102121.94;;;8.20;100.00
71772;BME280;59606;52.138;5.424;2023-02-21T08:44:06;102127.13;;;8.20;100.00
71772;BME280;59606;52.138;5.424;2023-02-21T08:46:33;102120.19;;;8.21;100.00
71772;BME280;59606;52.138;5.424;2023-02-21T08:49:02;102114.16;;;8.20;100.00
71772;BME280;59606;52.138;5.424;2023-02-21T08:51:30;102120.19;;;8.21;100.00
71772;BME280;59606;52.138;5.424;2023-02-21T08:53:57;102121.03;;;8.21;100.00
71772;BME280;59606;52.138;5.424;2023-02-21T08:56:24;102121.03;;;8.21;100.00
71772;BME280;59606;52.138;5.424;2023-02-21T08:58:52;102120.22;;;8.19;100.00
71772;BME280;59606;52.138;5.424;2023-02-21T09:01:23;102117.63;;;8.19;100.00
71772;BME280;59606;52.138;5.424;2023-02-21T09:03:50;102112.41;;;8.21;100.00
71772;BME280;59606;52.138;5.424;2023-02-21T09:06:16;102111.53;;;8.20;100.00
71772;BME280;59606;52.138;5.424;2023-02-21T09:08:43;102113.22;;;8.23;100.00
71772;BME280;59606;52.138;5.424;2023-02-21T09:11:09;102115.81;;;8.23;100.00
71772;BME280;59606;52.138;5.424;2023-02-21T09:13:36;102107.13;;;8.25;100.00
71772;BME280;59606;52.138;5.424;2023-02-21T09:16:03;102107.97;;;8.26;100.00
71772;BME280;59606;52.138;5.424;2023-02-21T09:18:30;102108.75;;;8.28;100.00
71772;BME280;59606;52.138;5.424;2023-02-21T09:20:57;102111.41;;;8.26;100.00
71772;BME280;59606;52.138;5.424;2023-02-21T09:23:26;102106.16;;;8.28;100.00
71772;BME280;59606;52.138;5.424;2023-02-21T09:25:53;102101.91;;;8.25;100.00
71772;BME280;59606;52.138;5.424;2023-02-21T09:28:20;102099.31;;;8.25;100.00
71772;BME280;59606;52.138;5.424;2023-02-21T09:30:48;102104.44;;;8.29;100.00
71772;BME280;59606;52.138;5.424;2023-02-21T09:33:15;102104.38;;;8.32;100.00
71772;BME280;59606;52.138;5.424;2023-02-21T09:35:41;102099.19;;;8.32;100.00
71772;BME280;59606;52.138;5.424;2023-02-21T09:38:08;102100.75;;;8.37;100.00
71772;BME280;59606;52.138;5.424;2023-02-21T09:43:10;102092.97;;;8.39;100.00
71772;BME280;59606;52.138;5.424;2023-02-21T09:45:38;102097.25;;;8.40;100.00
71772;BME280;59606;52.138;5.424;2023-02-21T09:48:13;102092.00;;;8.43;100.00
71772;BME280;59606;52.138;5.424;2023-02-21T09:50:45;102089.41;;;8.41;100.00
71772;BME280;59606;52.138;5.424;2023-02-21T09:53:19;102098.09;;;8.40;100.00
71772;BME280;59606;52.138;5.424;2023-02-21T09:55:49;102097.19;;;8.43;100.00
71772;BME280;59606;52.138;5.424;2023-02-21T09:58:18;102093.75;;;8.42;100.00
71772;BME280;59606;52.138;5.424;2023-02-21T10:00:46;102082.50;;;8.42;100.00
71772;BME280;59606;52.138;5.424;2023-02-21T10:03:43;102088.56;;;8.41;100.00
71772;BME280;59606;52.138;5.424;2023-02-21T10:06:34;102086.81;;;8.41;100.00
71772;BME280;59606;52.138;5.424;2023-02-21T10:19:47;102077.13;;;8.48;100.00
71772;BME280;59606;52.138;5.424;2023-02-21T10:22:21;102092.59;;;8.53;100.00
71772;BME280;59606;52.138;5.424;2023-02-21T10:24:49;102092.53;;;8.56;100.00
71772;BME280;59606;52.138;5.424;2023-02-21T10:27:19;102095.91;;;8.59;100.00
71772;BME280;59606;52.138;5.424;2023-02-21T10:29:53;102087.19;;;8.60;100.00
71772;BME280;59606;52.138;5.424;2023-02-21T10:32:22;102089.78;;;8.62;100.00
71772;BME280;59606;52.138;5.424;2023-02-21T10:34:50;102094.00;;;8.66;100.00
71772;BME280;59606;52.138;5.424;2023-02-21T10:37:51;102098.28;;;8.67;100.00
71772;BME280;59606;52.138;5.424;2023-02-21T10:43:14;102099.09;;;8.69;100.00
71772;BME280;59606;52.138;5.424;2023-02-21T10:48:26;102102.50;;;8.71;100.00
71772;BME280;59606;52.138;5.424;2023-02-21T10:53:36;102087.66;;;8.74;100.00
71772;BME280;59606;52.138;5.424;2023-02-21T10:58:45;102091.94;;;8.77;100.00
71772;BME280;59606;52.138;5.424;2023-02-21T11:01:16;102089.34;;;8.77;100.00
71772;BME280;59606;52.138;5.424;2023-02-21T11:03:51;102089.41;;;8.76;100.00
71772;BME280;59606;52.138;5.424;2023-02-21T11:06:33;102093.69;;;8.77;100.00
71772;BME280;59606;52.138;5.424;2023-02-21T11:09:22;102089.41;;;8.74;100.00
71772;BME280;59606;52.138;5.424;2023-02-21T11:12:17;102086.97;;;8.69;100.00
71772;BME280;59606;52.138;5.424;2023-02-21T11:17:21;102093.78;;;8.73;100.00
71772;BME280;59606;52.138;5.424;2023-02-21T11:19:55;102089.34;;;8.77;100.00
71772;BME280;59606;52.138;5.424;2023-02-21T11:22:25;102080.69;;;8.77;100.00
71772;BME280;59606;52.138;5.424;2023-02-21T11:25:10;102082.31;;;8.81;100.00
71772;BME280;59606;52.138;5.424;2023-02-21T11:27:43;102086.59;;;8.83;100.00
71772;BME280;59606;52.138;5.424;2023-02-21T11:30:18;102085.66;;;8.86;100.00
71772;BME280;59606;52.138;5.424;2023-02-21T11:32:53;102080.38;;;8.89;100.00
71772;BME280;59606;52.138;5.424;2023-02-21T11:35:29;102074.97;;;8.95;100.00
71772;BME280;59606;52.138;5.424;2023-02-21T11:38:01;102073.28;;;8.94;100.00
71772;BME280;59606;52.138;5.424;2023-02-21T11:43:18;102067.25;;;8.93;100.00
71772;BME280;59606;52.138;5.424;2023-02-21T11:46:04;102070.75;;;8.92;100.00
71772;BME280;59606;52.138;5.424;2023-02-21T11:48:46;102066.41;;;8.93;100.00
71772;BME280;59606;52.138;5.424;2023-02-21T11:51:30;102069.00;;;8.91;100.00
71772;BME280;59606;52.138;5.424;2023-02-21T11:53:58;102069.91;;;8.90;100.00
71772;BME280;59606;52.138;5.424;2023-02-21T11:56:45;102062.97;;;8.91;100.00
71772;BME280;59606;52.138;5.424;2023-02-21T12:02:16;102064.59;;;8.95;100.00
71772;BME280;59606;52.138;5.424;2023-02-21T12:18:29;102052.47;;;8.95;100.00
71772;BME280;59606;52.138;5.424;2023-02-21T12:21:26;102061.97;;;8.96;100.00
71772;BME280;59606;52.138;5.424;2023-02-21T12:29:40;102047.38;;;8.91;100.00
71772;BME280;59606;52.138;5.424;2023-02-21T12:35:00;102037.88;;;8.90;100.00
71772;BME280;59606;52.138;5.424;2023-02-21T12:37:36;102036.97;;;8.91;100.00
71772;BME280;59606;52.138;5.424;2023-02-21T12:43:00;102030.94;;;8.90;100.00
71772;BME280;59606;52.138;5.424;2023-02-21T12:48:45;102039.75;;;8.85;100.00
71772;BME280;59606;52.138;5.424;2023-02-21T12:51:20;102024.97;;;8.87;100.00
71772;BME280;59606;52.138;5.424;2023-02-21T12:54:00;102026.59;;;8.91;100.00
71772;BME280;59606;52.138;5.424;2023-02-21T12:56:34;102018.94;;;8.86;100.00
71772;BME280;59606;52.138;5.424;2023-02-21T12:59:07;102023.31;;;8.84;100.00
71772;BME280;59606;52.138;5.424;2023-02-21T13:01:43;102016.44;;;8.83;100.00
71772;BME280;59606;52.138;5.424;2023-02-21T13:04:21;102023.28;;;8.86;100.00
71772;BME280;59606;52.138;5.424;2023-02-21T13:07:00;102014.53;;;8.88;100.00
71772;BME280;59606;52.138;5.424;2023-02-21T13:09:39;102023.09;;;8.92;100.00
71772;BME280;59606;52.138;5.424;2023-02-21T13:12:13;102011.00;;;8.91;100.00
71772;BME280;59606;52.138;5.424;2023-02-21T13:14:48;102007.56;;;8.90;100.00
71772;BME280;59606;52.138;5.424;2023-02-21T13:17:16;102014.41;;;8.93;100.00
71772;BME280;59606;52.138;5.424;2023-02-21T13:20:08;102016.09;;;8.95;100.00
71772;BME280;59606;52.138;5.424;2023-02-21T13:22:54;102010.81;;;8.97;100.00
71772;BME280;59606;52.138;5.424;2023-02-21T13:28:27;102002.97;;;8.98;100.00
71772;BME280;59606;52.138;5.424;2023-02-21T13:31:00;102001.28;;;8.97;100.00
71772;BME280;59606;52.138;5.424;2023-02-21T13:33:48;101991.69;;;9.00;100.00
71772;BME280;59606;52.138;5.424;2023-02-21T13:36:29;101996.84;;;9.01;100.00
71772;BME280;59606;52.138;5.424;2023-02-21T13:38:59;101992.47;;;9.02;100.00
71772;BME280;59606;52.138;5.424;2023-02-21T13:41:29;101994.31;;;8.98;100.00
71772;BME280;59606;52.138;5.424;2023-02-21T13:43:58;101989.19;;;8.96;100.00
71772;BME280;59606;52.138;5.424;2023-02-21T14:03:02;101973.50;;;9.00;100.00
71772;BME280;59606;52.138;5.424;2023-02-21T14:08:37;101970.66;;;9.07;100.00
71772;BME280;59606;52.138;5.424;2023-02-21T14:18:44;101980.38;;;9.01;100.00
71772;BME280;59606;52.138;5.424;2023-02-21T14:24:10;101977.78;;;9.01;100.00
71772;BME280;59606;52.138;5.424;2023-02-21T14:27:29;101977.63;;;9.05;100.00
71772;BME280;59606;52.138;5.424;2023-02-21T14:32:47;101974.38;;;8.98;100.00
71772;BME280;59606;52.138;5.424;2023-02-21T14:37:50;101975.34;;;8.96;100.00
71772;BME280;59606;52.138;5.424;2023-02-21T15:05:52;101958.34;;;8.84;100.00
71772;BME280;59606;52.138;5.424;2023-02-21T15:08:22;101959.25;;;8.83;100.00
71772;BME280;59606;52.138;5.424;2023-02-21T15:10:52;101954.97;;;8.82;100.00
71772;BME280;59606;52.138;5.424;2023-02-21T15:16:10;101950.56;;;8.84;100.00
71772;BME280;59606;52.138;5.424;2023-02-21T15:18:56;101956.69;;;8.82;100.00
71772;BME280;59606;52.138;5.424;2023-02-21T15:21:25;101951.50;;;8.82;100.00
71772;BME280;59606;52.138;5.424;2023-02-21T15:24:11;101948.94;;;8.80;100.00
71772;BME280;59606;52.138;5.424;2023-02-21T15:26:38;101953.31;;;8.80;100.00
71772;BME280;59606;52.138;5.424;2023-02-21T15:29:12;101945.53;;;8.78;100.00
71772;BME280;59606;52.138;5.424;2023-02-21T15:34:14;101949.13;;;8.74;100.00
71772;BME280;59606;52.138;5.424;2023-02-21T15:36:45;101947.53;;;8.70;100.00
71772;BME280;59606;52.138;5.424;2023-02-21T15:39:25;101947.53;;;8.68;100.00
71772;BME280;59606;52.138;5.424;2023-02-21T15:41:54;101949.22;;;8.71;100.00
71772;BME280;59606;52.138;5.424;2023-02-21T15:47:07;101946.59;;;8.72;100.00
71772;BME280;59606;52.138;5.424;2023-02-21T15:50:10;101942.25;;;8.71;100.00
71772;BME280;59606;52.138;5.424;2023-02-21T15:52:39;101944.00;;;8.72;100.00
71772;BME280;59606;52.138;5.424;2023-02-21T15:57:55;101940.63;;;8.69;100.00
71772;BME280;59606;52.138;5.424;2023-02-21T16:00:35;101938.97;;;8.66;100.00
71772;BME280;59606;52.138;5.424;2023-02-21T16:03:32;101944.16;;;8.66;100.00
71772;BME280;59606;52.138;5.424;2023-02-21T16:09:06;101938.88;;;8.69;100.00
71772;BME280;59606;52.138;5.424;2023-02-21T16:11:45;101935.47;;;8.67;100.00